Terminal Aerodrome Forecast
Issued by NWS Central Illinois

Home | Current Version | Previous Version | Text Only | Print | Product List | Glossary On
Versions: 1 2 3 4 5 6 7 8 9 10 11 12 13 14 15 16 17 18 19 20 21 22 23 24 25 26
267
FTUS43 KILX 172001 AAA
TAFPIA
TAF AMD
KPIA 172001Z 1720/1818 17012G22KT 5SM BR VCSH OVC020
     FM172200 17012G21KT P6SM VCSH OVC015
     FM180000 17010G18KT P6SM -SHRA OVC010
     FM180500 19009KT 2SM -SHRA BR OVC004
     FM181000 26006KT 3SM -SHRA BR OVC004
     FM181400 34015G24KT 4SM SHRA BR OVC008=

USA.gov is the U.S. government's official web portal to all federal, state and local government web resources and services.